sensor_id;sensor_type;location;lat;lon;timestamp;temperature;humidity
17639;DHT22;8938;53.546;9.954;2023-01-28T00:00:06;7.00;99.90
17639;DHT22;8938;53.546;9.954;2023-01-28T00:02:32;6.90;99.90
17639;DHT22;8938;53.546;9.954;2023-01-28T00:04:58;6.80;99.90
17639;DHT22;8938;53.546;9.954;2023-01-28T00:07:24;6.70;99.90
17639;DHT22;8938;53.546;9.954;2023-01-28T00:09:49;6.70;99.90
17639;DHT22;8938;53.546;9.954;2023-01-28T00:12:15;6.80;99.90
17639;DHT22;8938;53.546;9.954;2023-01-28T00:14:40;6.70;99.90
17639;DHT22;8938;53.546;9.954;2023-01-28T00:17:06;6.70;99.90
17639;DHT22;8938;53.546;9.954;2023-01-28T00:19:32;6.70;99.90
17639;DHT22;8938;53.546;9.954;2023-01-28T00:21:57;6.80;99.90
17639;DHT22;8938;53.546;9.954;2023-01-28T00:24:23;6.70;99.90
17639;DHT22;8938;53.546;9.954;2023-01-28T00:26:48;6.80;99.90
17639;DHT22;8938;53.546;9.954;2023-01-28T00:29:14;6.90;99.90
17639;DHT22;8938;53.546;9.954;2023-01-28T00:31:39;7.00;99.90
17639;DHT22;8938;53.546;9.954;2023-01-28T00:34:06;6.90;99.90
17639;DHT22;8938;53.546;9.954;2023-01-28T00:36:32;6.80;99.90
17639;DHT22;8938;53.546;9.954;2023-01-28T00:38:58;6.70;99.90
17639;DHT22;8938;53.546;9.954;2023-01-28T00:41:29;6.80;99.90
17639;DHT22;8938;53.546;9.954;2023-01-28T00:43:55;6.80;99.90
17639;DHT22;8938;53.546;9.954;2023-01-28T00:46:21;6.80;99.90
17639;DHT22;8938;53.546;9.954;2023-01-28T00:48:47;6.60;99.90
17639;DHT22;8938;53.546;9.954;2023-01-28T00:51:15;6.60;99.90
17639;DHT22;8938;53.546;9.954;2023-01-28T00:53:44;6.50;99.90
17639;DHT22;8938;53.546;9.954;2023-01-28T00:56:12;6.50;99.90
17639;DHT22;8938;53.546;9.954;2023-01-28T00:58:39;6.50;99.90
17639;DHT22;8938;53.546;9.954;2023-01-28T01:01:07;6.50;99.90
17639;DHT22;8938;53.546;9.954;2023-01-28T01:03:33;6.50;99.90
17639;DHT22;8938;53.546;9.954;2023-01-28T01:05:59;6.40;99.70
17639;DHT22;8938;53.546;9.954;2023-01-28T01:08:24;6.40;99.90
17639;DHT22;8938;53.546;9.954;2023-01-28T01:11:00;6.50;99.90
17639;DHT22;8938;53.546;9.954;2023-01-28T01:13:25;6.50;99.90
17639;DHT22;8938;53.546;9.954;2023-01-28T01:16:01;6.50;99.80
17639;DHT22;8938;53.546;9.954;2023-01-28T01:18:26;6.40;99.60
17639;DHT22;8938;53.546;9.954;2023-01-28T01:20:52;6.40;99.90
17639;DHT22;8938;53.546;9.954;2023-01-28T01:23:26;6.40;99.60
17639;DHT22;8938;53.546;9.954;2023-01-28T01:25:52;6.40;99.70
17639;DHT22;8938;53.546;9.954;2023-01-28T01:28:18;6.50;99.70
17639;DHT22;8938;53.546;9.954;2023-01-28T01:30:45;6.50;99.90
17639;DHT22;8938;53.546;9.954;2023-01-28T01:33:11;6.70;99.90
17639;DHT22;8938;53.546;9.954;2023-01-28T01:35:52;6.90;99.90
17639;DHT22;8938;53.546;9.954;2023-01-28T01:38:19;7.00;99.70
17639;DHT22;8938;53.546;9.954;2023-01-28T01:40:44;6.80;99.30
17639;DHT22;8938;53.546;9.954;2023-01-28T01:43:17;6.70;99.60
17639;DHT22;8938;53.546;9.954;2023-01-28T01:45:44;6.80;99.70
17639;DHT22;8938;53.546;9.954;2023-01-28T01:48:21;6.70;99.50
17639;DHT22;8938;53.546;9.954;2023-01-28T01:50:56;6.80;99.80
17639;DHT22;8938;53.546;9.954;2023-01-28T01:53:24;6.90;99.80
17639;DHT22;8938;53.546;9.954;2023-01-28T01:55:53;7.00;99.70
17639;DHT22;8938;53.546;9.954;2023-01-28T01:58:24;7.10;99.60
17639;DHT22;8938;53.546;9.954;2023-01-28T02:00:50;7.20;99.50
17639;DHT22;8938;53.546;9.954;2023-01-28T02:03:20;7.10;99.50
17639;DHT22;8938;53.546;9.954;2023-01-28T02:05:49;7.10;99.40
17639;DHT22;8938;53.546;9.954;2023-01-28T02:08:15;6.90;99.20
17639;DHT22;8938;53.546;9.954;2023-01-28T02:10:49;6.70;99.30
17639;DHT22;8938;53.546;9.954;2023-01-28T02:13:18;6.70;99.60
17639;DHT22;8938;53.546;9.954;2023-01-28T02:15:45;6.70;99.70
17639;DHT22;8938;53.546;9.954;2023-01-28T02:18:11;6.90;99.80
17639;DHT22;8938;53.546;9.954;2023-01-28T02:28:33;7.00;99.60
17639;DHT22;8938;53.546;9.954;2023-01-28T02:31:13;7.10;99.70
17639;DHT22;8938;53.546;9.954;2023-01-28T02:33:42;7.10;99.70
17639;DHT22;8938;53.546;9.954;2023-01-28T02:36:29;7.20;99.70
17639;DHT22;8938;53.546;9.954;2023-01-28T02:39:02;7.20;99.80
17639;DHT22;8938;53.546;9.954;2023-01-28T02:41:33;7.20;99.60
17639;DHT22;8938;53.546;9.954;2023-01-28T02:44:01;7.20;99.70
17639;DHT22;8938;53.546;9.954;2023-01-28T02:49:32;7.10;99.80
17639;DHT22;8938;53.546;9.954;2023-01-28T02:55:44;6.90;99.60
17639;DHT22;8938;53.546;9.954;2023-01-28T02:58:25;6.90;99.60
17639;DHT22;8938;53.546;9.954;2023-01-28T03:03:32;6.90;99.50
17639;DHT22;8938;53.546;9.954;2023-01-28T03:06:06;7.00;99.40
17639;DHT22;8938;53.546;9.954;2023-01-28T03:08:37;6.90;99.30
17639;DHT22;8938;53.546;9.954;2023-01-28T03:11:23;6.80;99.40
17639;DHT22;8938;53.546;9.954;2023-01-28T03:14:10;6.80;99.30
17639;DHT22;8938;53.546;9.954;2023-01-28T03:16:58;6.80;99.30
17639;DHT22;8938;53.546;9.954;2023-01-28T03:19:42;6.80;99.50
17639;DHT22;8938;53.546;9.954;2023-01-28T03:22:28;6.90;99.50
17639;DHT22;8938;53.546;9.954;2023-01-28T03:25:17;6.80;99.40
17639;DHT22;8938;53.546;9.954;2023-01-28T03:28:05;6.90;99.50
17639;DHT22;8938;53.546;9.954;2023-01-28T03:31:03;6.90;99.30
17639;DHT22;8938;53.546;9.954;2023-01-28T03:33:50;6.90;99.20
17639;DHT22;8938;53.546;9.954;2023-01-28T03:36:34;6.80;99.20
17639;DHT22;8938;53.546;9.954;2023-01-28T03:39:14;6.80;99.30
17639;DHT22;8938;53.546;9.954;2023-01-28T03:41:40;6.90;99.30
17639;DHT22;8938;53.546;9.954;2023-01-28T03:44:06;6.90;99.40
17639;DHT22;8938;53.546;9.954;2023-01-28T03:46:50;6.90;99.40
17639;DHT22;8938;53.546;9.954;2023-01-28T03:49:16;7.00;99.30
17639;DHT22;8938;53.546;9.954;2023-01-28T03:51:42;7.00;99.30
17639;DHT22;8938;53.546;9.954;2023-01-28T03:54:08;6.90;99.20
17639;DHT22;8938;53.546;9.954;2023-01-28T03:56:33;6.90;99.20
17639;DHT22;8938;53.546;9.954;2023-01-28T03:59:06;6.90;99.30
17639;DHT22;8938;53.546;9.954;2023-01-28T04:01:31;6.90;99.30
17639;DHT22;8938;53.546;9.954;2023-01-28T04:03:57;6.90;99.30
17639;DHT22;8938;53.546;9.954;2023-01-28T04:06:23;6.80;99.40
17639;DHT22;8938;53.546;9.954;2023-01-28T04:08:48;6.80;99.40
17639;DHT22;8938;53.546;9.954;2023-01-28T04:11:18;6.90;99.50
17639;DHT22;8938;53.546;9.954;2023-01-28T04:14:00;6.90;99.40
17639;DHT22;8938;53.546;9.954;2023-01-28T04:16:25;6.70;99.20
17639;DHT22;8938;53.546;9.954;2023-01-28T04:18:51;6.60;99.40
17639;DHT22;8938;53.546;9.954;2023-01-28T04:21:16;6.60;99.40
17639;DHT22;8938;53.546;9.954;2023-01-28T04:23:42;6.50;99.40
17639;DHT22;8938;53.546;9.954;2023-01-28T04:26:07;6.50;99.50
17639;DHT22;8938;53.546;9.954;2023-01-28T04:28:33;6.50;99.60
17639;DHT22;8938;53.546;9.954;2023-01-28T04:30:58;6.50;99.60
17639;DHT22;8938;53.546;9.954;2023-01-28T04:33:24;6.60;99.60
17639;DHT22;8938;53.546;9.954;2023-01-28T04:35:49;6.70;99.60
17639;DHT22;8938;53.546;9.954;2023-01-28T04:38:15;6.60;99.40
17639;DHT22;8938;53.546;9.954;2023-01-28T04:40:40;6.50;99.40
17639;DHT22;8938;53.546;9.954;2023-01-28T04:43:06;6.40;99.40
17639;DHT22;8938;53.546;9.954;2023-01-28T04:45:31;6.30;99.50
17639;DHT22;8938;53.546;9.954;2023-01-28T04:47:57;6.30;99.60
17639;DHT22;8938;53.546;9.954;2023-01-28T04:50:22;6.30;99.60
17639;DHT22;8938;53.546;9.954;2023-01-28T04:52:48;6.30;99.70
17639;DHT22;8938;53.546;9.954;2023-01-28T04:55:13;6.30;99.70
17639;DHT22;8938;53.546;9.954;2023-01-28T04:57:39;6.20;99.70
17639;DHT22;8938;53.546;9.954;2023-01-28T05:00:05;6.20;99.80
17639;DHT22;8938;53.546;9.954;2023-01-28T05:02:31;6.30;99.80
17639;DHT22;8938;53.546;9.954;2023-01-28T05:04:56;6.30;99.70
17639;DHT22;8938;53.546;9.954;2023-01-28T05:07:22;6.20;99.70
17639;DHT22;8938;53.546;9.954;2023-01-28T05:09:47;6.20;99.70
17639;DHT22;8938;53.546;9.954;2023-01-28T05:12:13;6.20;99.80
17639;DHT22;8938;53.546;9.954;2023-01-28T05:14:38;6.10;99.80
17639;DHT22;8938;53.546;9.954;2023-01-28T05:17:04;6.00;99.80
17639;DHT22;8938;53.546;9.954;2023-01-28T05:19:29;6.00;99.80
17639;DHT22;8938;53.546;9.954;2023-01-28T05:21:55;6.00;99.90
17639;DHT22;8938;53.546;9.954;2023-01-28T05:24:20;6.00;99.90
17639;DHT22;8938;53.546;9.954;2023-01-28T05:26:46;6.00;99.90
17639;DHT22;8938;53.546;9.954;2023-01-28T05:29:11;6.10;99.90
17639;DHT22;8938;53.546;9.954;2023-01-28T05:31:37;6.10;99.90
17639;DHT22;8938;53.546;9.954;2023-01-28T05:34:02;6.10;99.90
17639;DHT22;8938;53.546;9.954;2023-01-28T05:36:28;6.10;99.90
17639;DHT22;8938;53.546;9.954;2023-01-28T05:38:54;6.00;99.90
17639;DHT22;8938;53.546;9.954;2023-01-28T05:41:19;6.00;99.90
17639;DHT22;8938;53.546;9.954;2023-01-28T05:43:45;6.00;99.90
17639;DHT22;8938;53.546;9.954;2023-01-28T05:46:10;6.00;99.90
17639;DHT22;8938;53.546;9.954;2023-01-28T05:48:36;6.00;99.90
17639;DHT22;8938;53.546;9.954;2023-01-28T05:51:01;6.00;99.90
17639;DHT22;8938;53.546;9.954;2023-01-28T05:53:27;6.00;99.90
17639;DHT22;8938;53.546;9.954;2023-01-28T05:55:53;6.00;99.90
17639;DHT22;8938;53.546;9.954;2023-01-28T05:58:19;6.00;99.90
17639;DHT22;8938;53.546;9.954;2023-01-28T06:00:45;6.00;99.90
17639;DHT22;8938;53.546;9.954;2023-01-28T06:03:11;5.90;99.90
17639;DHT22;8938;53.546;9.954;2023-01-28T06:05:37;6.00;99.90
17639;DHT22;8938;53.546;9.954;2023-01-28T06:08:02;5.90;99.90
17639;DHT22;8938;53.546;9.954;2023-01-28T06:10:28;5.90;99.90
17639;DHT22;8938;53.546;9.954;2023-01-28T06:12:54;5.80;99.90
17639;DHT22;8938;53.546;9.954;2023-01-28T06:15:20;5.80;99.90
17639;DHT22;8938;53.546;9.954;2023-01-28T06:17:45;5.80;99.90
17639;DHT22;8938;53.546;9.954;2023-01-28T06:20:11;5.70;99.90
17639;DHT22;8938;53.546;9.954;2023-01-28T06:22:36;5.70;99.90
17639;DHT22;8938;53.546;9.954;2023-01-28T06:25:02;5.70;99.90
17639;DHT22;8938;53.546;9.954;2023-01-28T06:27:28;5.70;99.90
17639;DHT22;8938;53.546;9.954;2023-01-28T06:29:54;5.60;99.90
17639;DHT22;8938;53.546;9.954;2023-01-28T06:32:19;5.50;99.90
17639;DHT22;8938;53.546;9.954;2023-01-28T06:34:45;5.50;99.90
17639;DHT22;8938;53.546;9.954;2023-01-28T06:37:14;5.50;99.90
17639;DHT22;8938;53.546;9.954;2023-01-28T06:39:40;5.30;99.90
17639;DHT22;8938;53.546;9.954;2023-01-28T06:42:05;5.30;99.90
17639;DHT22;8938;53.546;9.954;2023-01-28T06:44:31;5.30;99.90
17639;DHT22;8938;53.546;9.954;2023-01-28T06:46:56;5.30;99.90
17639;DHT22;8938;53.546;9.954;2023-01-28T06:49:22;5.40;99.90
17639;DHT22;8938;53.546;9.954;2023-01-28T06:51:48;5.40;99.90
17639;DHT22;8938;53.546;9.954;2023-01-28T06:54:13;5.30;99.90
17639;DHT22;8938;53.546;9.954;2023-01-28T06:56:39;5.40;99.90
17639;DHT22;8938;53.546;9.954;2023-01-28T06:59:04;5.40;99.90
17639;DHT22;8938;53.546;9.954;2023-01-28T07:01:30;5.30;99.90
17639;DHT22;8938;53.546;9.954;2023-01-28T07:03:56;5.30;99.90
17639;DHT22;8938;53.546;9.954;2023-01-28T07:06:22;5.40;99.90
17639;DHT22;8938;53.546;9.954;2023-01-28T07:08:48;5.30;99.90
17639;DHT22;8938;53.546;9.954;2023-01-28T07:11:14;5.30;99.90
17639;DHT22;8938;53.546;9.954;2023-01-28T07:13:39;5.30;99.90
17639;DHT22;8938;53.546;9.954;2023-01-28T07:16:06;5.20;99.90
17639;DHT22;8938;53.546;9.954;2023-01-28T07:18:32;5.10;99.90
17639;DHT22;8938;53.546;9.954;2023-01-28T07:20:57;5.00;99.90
17639;DHT22;8938;53.546;9.954;2023-01-28T07:23:23;5.00;99.90
17639;DHT22;8938;53.546;9.954;2023-01-28T07:25:48;4.90;99.90
17639;DHT22;8938;53.546;9.954;2023-01-28T07:28:14;4.90;99.90
17639;DHT22;8938;53.546;9.954;2023-01-28T07:30:49;4.90;99.90
17639;DHT22;8938;53.546;9.954;2023-01-28T07:33:16;4.90;99.90
17639;DHT22;8938;53.546;9.954;2023-01-28T07:35:42;5.00;99.90
17639;DHT22;8938;53.546;9.954;2023-01-28T07:38:08;5.00;99.90
17639;DHT22;8938;53.546;9.954;2023-01-28T07:40:34;5.00;99.90
17639;DHT22;8938;53.546;9.954;2023-01-28T07:43:00;5.10;99.90
17639;DHT22;8938;53.546;9.954;2023-01-28T07:45:26;5.10;99.90
17639;DHT22;8938;53.546;9.954;2023-01-28T07:48:06;5.20;99.90
17639;DHT22;8938;53.546;9.954;2023-01-28T07:50:33;5.10;99.90
17639;DHT22;8938;53.546;9.954;2023-01-28T07:53:06;5.10;99.90
17639;DHT22;8938;53.546;9.954;2023-01-28T07:55:32;4.90;99.90
17639;DHT22;8938;53.546;9.954;2023-01-28T07:58:01;4.90;99.90
17639;DHT22;8938;53.546;9.954;2023-01-28T08:00:29;4.90;99.90
17639;DHT22;8938;53.546;9.954;2023-01-28T08:03:01;4.90;99.90
17639;DHT22;8938;53.546;9.954;2023-01-28T08:05:47;4.80;99.90
17639;DHT22;8938;53.546;9.954;2023-01-28T08:08:13;4.80;99.90
17639;DHT22;8938;53.546;9.954;2023-01-28T08:10:39;4.70;99.90
17639;DHT22;8938;53.546;9.954;2023-01-28T08:13:05;4.70;99.90
17639;DHT22;8938;53.546;9.954;2023-01-28T08:15:32;4.60;99.90
17639;DHT22;8938;53.546;9.954;2023-01-28T08:17:58;4.60;99.90
17639;DHT22;8938;53.546;9.954;2023-01-28T08:20:25;4.60;99.90
17639;DHT22;8938;53.546;9.954;2023-01-28T08:22:51;4.60;99.90
17639;DHT22;8938;53.546;9.954;2023-01-28T08:25:30;4.60;99.90
17639;DHT22;8938;53.546;9.954;2023-01-28T08:27:56;4.60;99.90
17639;DHT22;8938;53.546;9.954;2023-01-28T08:30:21;4.60;99.90
17639;DHT22;8938;53.546;9.954;2023-01-28T08:32:46;4.60;99.90
17639;DHT22;8938;53.546;9.954;2023-01-28T08:35:15;4.70;99.90
17639;DHT22;8938;53.546;9.954;2023-01-28T08:37:41;4.70;99.90
17639;DHT22;8938;53.546;9.954;2023-01-28T08:40:08;4.80;99.90
17639;DHT22;8938;53.546;9.954;2023-01-28T08:42:34;4.80;99.90
17639;DHT22;8938;53.546;9.954;2023-01-28T08:44:59;4.80;99.90
17639;DHT22;8938;53.546;9.954;2023-01-28T08:47:25;4.70;99.90
17639;DHT22;8938;53.546;9.954;2023-01-28T08:49:50;4.80;99.90
17639;DHT22;8938;53.546;9.954;2023-01-28T08:52:16;4.90;99.90
17639;DHT22;8938;53.546;9.954;2023-01-28T08:54:41;5.00;99.90
17639;DHT22;8938;53.546;9.954;2023-01-28T08:57:07;5.00;99.90
17639;DHT22;8938;53.546;9.954;2023-01-28T08:59:32;5.10;99.90
17639;DHT22;8938;53.546;9.954;2023-01-28T09:01:58;5.10;99.90
17639;DHT22;8938;53.546;9.954;2023-01-28T09:04:23;5.10;99.90
17639;DHT22;8938;53.546;9.954;2023-01-28T09:06:49;5.20;99.90
17639;DHT22;8938;53.546;9.954;2023-01-28T09:09:14;5.10;99.90
17639;DHT22;8938;53.546;9.954;2023-01-28T09:11:40;5.10;99.90
17639;DHT22;8938;53.546;9.954;2023-01-28T09:14:06;5.20;99.90
17639;DHT22;8938;53.546;9.954;2023-01-28T09:16:31;5.30;99.90
17639;DHT22;8938;53.546;9.954;2023-01-28T09:18:57;5.30;99.90
17639;DHT22;8938;53.546;9.954;2023-01-28T09:21:22;5.40;99.90
17639;DHT22;8938;53.546;9.954;2023-01-28T09:23:48;5.50;99.90
17639;DHT22;8938;53.546;9.954;2023-01-28T09:26:13;5.60;99.90
17639;DHT22;8938;53.546;9.954;2023-01-28T09:28:39;5.90;99.90
17639;DHT22;8938;53.546;9.954;2023-01-28T09:31:10;6.00;99.90
17639;DHT22;8938;53.546;9.954;2023-01-28T09:33:38;6.30;99.90
17639;DHT22;8938;53.546;9.954;2023-01-28T09:36:06;6.70;99.90
17639;DHT22;8938;53.546;9.954;2023-01-28T09:38:32;6.80;99.90
17639;DHT22;8938;53.546;9.954;2023-01-28T09:40:59;6.80;99.90
17639;DHT22;8938;53.546;9.954;2023-01-28T09:46:03;7.30;99.90
17639;DHT22;8938;53.546;9.954;2023-01-28T09:48:40;7.50;99.90
17639;DHT22;8938;53.546;9.954;2023-01-28T09:53:54;7.00;99.90
17639;DHT22;8938;53.546;9.954;2023-01-28T09:56:35;6.70;99.90
17639;DHT22;8938;53.546;9.954;2023-01-28T09:59:34;6.40;99.90
17639;DHT22;8938;53.546;9.954;2023-01-28T10:13:20;6.10;99.90
17639;DHT22;8938;53.546;9.954;2023-01-28T10:16:05;5.90;99.90
17639;DHT22;8938;53.546;9.954;2023-01-28T10:19:00;6.10;99.90
17639;DHT22;8938;53.546;9.954;2023-01-28T10:21:40;6.20;99.90
17639;DHT22;8938;53.546;9.954;2023-01-28T10:24:14;6.20;99.90
17639;DHT22;8938;53.546;9.954;2023-01-28T10:26:42;6.20;99.90
17639;DHT22;8938;53.546;9.954;2023-01-28T10:29:26;6.30;99.90
17639;DHT22;8938;53.546;9.954;2023-01-28T10:32:02;6.50;99.90
17639;DHT22;8938;53.546;9.954;2023-01-28T10:34:29;6.60;99.90
17639;DHT22;8938;53.546;9.954;2023-01-28T10:36:56;6.70;99.90
17639;DHT22;8938;53.546;9.954;2023-01-28T10:39:23;6.90;99.90
17639;DHT22;8938;53.546;9.954;2023-01-28T10:41:49;6.90;99.90
17639;DHT22;8938;53.546;9.954;2023-01-28T10:44:25;6.90;99.90
17639;DHT22;8938;53.546;9.954;2023-01-28T10:46:56;6.70;99.90
17639;DHT22;8938;53.546;9.954;2023-01-28T10:49:29;6.80;99.90
17639;DHT22;8938;53.546;9.954;2023-01-28T10:51:55;6.70;99.90
17639;DHT22;8938;53.546;9.954;2023-01-28T10:54:23;6.70;99.90
17639;DHT22;8938;53.546;9.954;2023-01-28T10:56:54;6.70;99.90
17639;DHT22;8938;53.546;9.954;2023-01-28T10:59:26;6.60;99.90
17639;DHT22;8938;53.546;9.954;2023-01-28T11:02:03;6.50;99.90
17639;DHT22;8938;53.546;9.954;2023-01-28T11:04:31;6.40;99.90
17639;DHT22;8938;53.546;9.954;2023-01-28T11:07:00;6.40;99.90
17639;DHT22;8938;53.546;9.954;2023-01-28T11:09:28;6.40;99.90
17639;DHT22;8938;53.546;9.954;2023-01-28T11:11:56;6.40;99.90
17639;DHT22;8938;53.546;9.954;2023-01-28T11:14:24;6.50;99.90
17639;DHT22;8938;53.546;9.954;2023-01-28T11:16:53;6.30;99.90
17639;DHT22;8938;53.546;9.954;2023-01-28T11:19:21;6.60;99.90
17639;DHT22;8938;53.546;9.954;2023-01-28T11:21:55;6.40;99.90
17639;DHT22;8938;53.546;9.954;2023-01-28T11:24:25;6.40;99.90
17639;DHT22;8938;53.546;9.954;2023-01-28T11:26:54;6.40;99.90
17639;DHT22;8938;53.546;9.954;2023-01-28T11:29:23;6.50;99.90
17639;DHT22;8938;53.546;9.954;2023-01-28T11:31:50;6.60;99.90
17639;DHT22;8938;53.546;9.954;2023-01-28T11:34:17;6.70;99.90
17639;DHT22;8938;53.546;9.954;2023-01-28T11:36:51;6.80;99.90
17639;DHT22;8938;53.546;9.954;2023-01-28T11:39:24;6.90;99.90
17639;DHT22;8938;53.546;9.954;2023-01-28T11:41:53;7.00;99.90
17639;DHT22;8938;53.546;9.954;2023-01-28T11:44:20;7.10;99.90
17639;DHT22;8938;53.546;9.954;2023-01-28T11:52:54;7.10;99.90
17639;DHT22;8938;53.546;9.954;2023-01-28T12:06:50;7.10;99.90
17639;DHT22;8938;53.546;9.954;2023-01-28T12:15:39;7.00;99.90
17639;DHT22;8938;53.546;9.954;2023-01-28T12:18:13;7.10;99.90
17639;DHT22;8938;53.546;9.954;2023-01-28T12:20:51;7.20;99.90
17639;DHT22;8938;53.546;9.954;2023-01-28T12:23:35;7.30;99.90
17639;DHT22;8938;53.546;9.954;2023-01-28T12:32:11;7.30;99.90
17639;DHT22;8938;53.546;9.954;2023-01-28T12:45:45;7.10;99.90
17639;DHT22;8938;53.546;9.954;2023-01-28T12:48:21;7.10;99.90
17639;DHT22;8938;53.546;9.954;2023-01-28T12:51:10;7.10;99.90
17639;DHT22;8938;53.546;9.954;2023-01-28T12:56:32;7.40;99.90
17639;DHT22;8938;53.546;9.954;2023-01-28T13:01:44;7.30;99.90
17639;DHT22;8938;53.546;9.954;2023-01-28T13:04:49;7.40;99.90
17639;DHT22;8938;53.546;9.954;2023-01-28T13:07:31;7.20;99.90
17639;DHT22;8938;53.546;9.954;2023-01-28T13:12:46;7.20;99.90
17639;DHT22;8938;53.546;9.954;2023-01-28T13:18:02;7.30;99.90
17639;DHT22;8938;53.546;9.954;2023-01-28T13:20:49;7.30;99.90
17639;DHT22;8938;53.546;9.954;2023-01-28T13:36:30;7.80;99.90
17639;DHT22;8938;53.546;9.954;2023-01-28T13:39:13;8.00;99.90
17639;DHT22;8938;53.546;9.954;2023-01-28T13:41:47;8.20;99.90
17639;DHT22;8938;53.546;9.954;2023-01-28T13:44:31;8.30;99.90
17639;DHT22;8938;53.546;9.954;2023-01-28T13:47:11;8.30;99.90
17639;DHT22;8938;53.546;9.954;2023-01-28T13:52:13;8.00;99.90
17639;DHT22;8938;53.546;9.954;2023-01-28T13:54:54;7.80;99.90
17639;DHT22;8938;53.546;9.954;2023-01-28T13:57:59;7.70;99.90
17639;DHT22;8938;53.546;9.954;2023-01-28T14:00:56;7.70;99.90
17639;DHT22;8938;53.546;9.954;2023-01-28T14:17:20;7.50;99.90
17639;DHT22;8938;53.546;9.954;2023-01-28T14:19:48;7.40;99.90
17639;DHT22;8938;53.546;9.954;2023-01-28T14:22:18;7.30;99.90
17639;DHT22;8938;53.546;9.954;2023-01-28T14:24:44;7.30;99.90
17639;DHT22;8938;53.546;9.954;2023-01-28T14:27:24;7.10;99.90
17639;DHT22;8938;53.546;9.954;2023-01-28T14:30:17;7.10;99.90
17639;DHT22;8938;53.546;9.954;2023-01-28T14:32:45;7.10;99.90
17639;DHT22;8938;53.546;9.954;2023-01-28T14:35:17;7.10;99.90
17639;DHT22;8938;53.546;9.954;2023-01-28T14:37:44;7.00;99.90
17639;DHT22;8938;53.546;9.954;2023-01-28T14:40:16;7.10;99.90
17639;DHT22;8938;53.546;9.954;2023-01-28T14:42:45;6.90;99.90
17639;DHT22;8938;53.546;9.954;2023-01-28T14:45:28;6.80;99.90
17639;DHT22;8938;53.546;9.954;2023-01-28T14:53:55;7.00;99.90
17639;DHT22;8938;53.546;9.954;2023-01-28T14:59:37;7.00;99.90
17639;DHT22;8938;53.546;9.954;2023-01-28T15:02:25;6.90;99.90
17639;DHT22;8938;53.546;9.954;2023-01-28T15:04:51;7.00;99.90
17639;DHT22;8938;53.546;9.954;2023-01-28T15:07:25;6.90;99.90
17639;DHT22;8938;53.546;9.954;2023-01-28T15:10:06;6.90;99.90
17639;DHT22;8938;53.546;9.954;2023-01-28T15:12:37;6.90;99.90
17639;DHT22;8938;53.546;9.954;2023-01-28T15:15:30;7.00;99.90
17639;DHT22;8938;53.546;9.954;2023-01-28T15:18:04;7.10;99.90
17639;DHT22;8938;53.546;9.954;2023-01-28T15:20:32;7.10;99.90
17639;DHT22;8938;53.546;9.954;2023-01-28T15:22:59;7.20;99.90
17639;DHT22;8938;53.546;9.954;2023-01-28T15:25:27;7.20;99.90
17639;DHT22;8938;53.546;9.954;2023-01-28T15:27:55;7.10;99.90
17639;DHT22;8938;53.546;9.954;2023-01-28T15:30:26;7.00;99.90
17639;DHT22;8938;53.546;9.954;2023-01-28T15:33:02;7.00;99.90
17639;DHT22;8938;53.546;9.954;2023-01-28T15:35:29;6.90;99.90
17639;DHT22;8938;53.546;9.954;2023-01-28T15:37:55;6.80;99.90
17639;DHT22;8938;53.546;9.954;2023-01-28T15:40:22;6.70;99.90
17639;DHT22;8938;53.546;9.954;2023-01-28T15:42:50;6.80;99.90
17639;DHT22;8938;53.546;9.954;2023-01-28T15:45:18;6.70;99.90
17639;DHT22;8938;53.546;9.954;2023-01-28T15:47:45;6.70;99.90
17639;DHT22;8938;53.546;9.954;2023-01-28T15:50:30;6.70;99.90
17639;DHT22;8938;53.546;9.954;2023-01-28T15:52:55;6.90;99.90
17639;DHT22;8938;53.546;9.954;2023-01-28T15:55:37;6.90;99.90
17639;DHT22;8938;53.546;9.954;2023-01-28T16:00:46;6.60;99.90
17639;DHT22;8938;53.546;9.954;2023-01-28T16:03:20;6.60;99.90
17639;DHT22;8938;53.546;9.954;2023-01-28T16:06:01;6.60;99.90
17639;DHT22;8938;53.546;9.954;2023-01-28T16:08:51;6.60;99.90
17639;DHT22;8938;53.546;9.954;2023-01-28T16:11:34;6.60;99.90
17639;DHT22;8938;53.546;9.954;2023-01-28T16:14:01;6.60;99.90
17639;DHT22;8938;53.546;9.954;2023-01-28T16:16:36;6.60;99.90
17639;DHT22;8938;53.546;9.954;2023-01-28T16:19:04;6.70;99.90
17639;DHT22;8938;53.546;9.954;2023-01-28T16:21:34;6.70;99.90
17639;DHT22;8938;53.546;9.954;2023-01-28T16:24:05;6.60;99.90
17639;DHT22;8938;53.546;9.954;2023-01-28T16:26:33;6.60;99.90
17639;DHT22;8938;53.546;9.954;2023-01-28T16:29:13;6.70;99.90
17639;DHT22;8938;53.546;9.954;2023-01-28T16:31:48;6.80;99.90
17639;DHT22;8938;53.546;9.954;2023-01-28T16:34:14;6.80;99.90
17639;DHT22;8938;53.546;9.954;2023-01-28T16:36:39;6.70;99.90
17639;DHT22;8938;53.546;9.954;2023-01-28T16:39:05;6.60;99.90
17639;DHT22;8938;53.546;9.954;2023-01-28T16:41:39;6.70;99.90
17639;DHT22;8938;53.546;9.954;2023-01-28T16:44:05;6.70;99.90
17639;DHT22;8938;53.546;9.954;2023-01-28T16:46:31;6.80;99.90
17639;DHT22;8938;53.546;9.954;2023-01-28T16:49:01;6.70;99.90
17639;DHT22;8938;53.546;9.954;2023-01-28T16:51:27;6.60;99.90
17639;DHT22;8938;53.546;9.954;2023-01-28T16:53:52;6.60;99.90
17639;DHT22;8938;53.546;9.954;2023-01-28T16:56:21;6.50;99.90
17639;DHT22;8938;53.546;9.954;2023-01-28T16:58:47;6.40;99.90
17639;DHT22;8938;53.546;9.954;2023-01-28T17:01:14;6.40;99.90
17639;DHT22;8938;53.546;9.954;2023-01-28T17:03:39;6.60;99.90
17639;DHT22;8938;53.546;9.954;2023-01-28T17:06:06;6.60;99.90
17639;DHT22;8938;53.546;9.954;2023-01-28T17:08:32;6.70;99.90
17639;DHT22;8938;53.546;9.954;2023-01-28T17:10:59;6.70;99.90
17639;DHT22;8938;53.546;9.954;2023-01-28T17:13:25;6.70;99.90
17639;DHT22;8938;53.546;9.954;2023-01-28T17:15:51;6.70;99.90
17639;DHT22;8938;53.546;9.954;2023-01-28T17:18:17;6.70;99.90
17639;DHT22;8938;53.546;9.954;2023-01-28T17:20:42;6.70;99.90
17639;DHT22;8938;53.546;9.954;2023-01-28T17:23:13;6.70;99.90
17639;DHT22;8938;53.546;9.954;2023-01-28T17:25:42;6.60;99.90
17639;DHT22;8938;53.546;9.954;2023-01-28T17:28:08;6.40;99.90
17639;DHT22;8938;53.546;9.954;2023-01-28T17:30:37;6.50;99.90
17639;DHT22;8938;53.546;9.954;2023-01-28T17:33:03;6.40;99.90
17639;DHT22;8938;53.546;9.954;2023-01-28T17:35:29;6.40;99.90
17639;DHT22;8938;53.546;9.954;2023-01-28T17:37:55;6.50;99.90
17639;DHT22;8938;53.546;9.954;2023-01-28T17:40:21;6.50;99.90
17639;DHT22;8938;53.546;9.954;2023-01-28T17:42:47;6.60;99.90
17639;DHT22;8938;53.546;9.954;2023-01-28T17:45:13;6.60;99.90
17639;DHT22;8938;53.546;9.954;2023-01-28T17:47:38;6.60;99.90
17639;DHT22;8938;53.546;9.954;2023-01-28T17:50:04;6.60;99.90
17639;DHT22;8938;53.546;9.954;2023-01-28T17:52:31;6.80;99.90
17639;DHT22;8938;53.546;9.954;2023-01-28T17:54:57;6.80;99.90
17639;DHT22;8938;53.546;9.954;2023-01-28T17:57:23;6.80;99.90
17639;DHT22;8938;53.546;9.954;2023-01-28T17:59:48;6.70;99.90
17639;DHT22;8938;53.546;9.954;2023-01-28T18:02:14;6.70;99.90
17639;DHT22;8938;53.546;9.954;2023-01-28T18:04:41;6.70;99.90
17639;DHT22;8938;53.546;9.954;2023-01-28T18:07:08;6.80;99.90
17639;DHT22;8938;53.546;9.954;2023-01-28T18:09:44;6.70;99.90
17639;DHT22;8938;53.546;9.954;2023-01-28T18:12:14;6.60;99.90
17639;DHT22;8938;53.546;9.954;2023-01-28T18:14:40;6.50;99.90
17639;DHT22;8938;53.546;9.954;2023-01-28T18:17:06;6.40;99.90
17639;DHT22;8938;53.546;9.954;2023-01-28T18:19:33;6.50;99.90
17639;DHT22;8938;53.546;9.954;2023-01-28T18:21:59;6.50;99.90
17639;DHT22;8938;53.546;9.954;2023-01-28T18:24:27;6.50;99.90